Terminal Aerodrome Forecast
Issued by NWS

Home | Current Version | Previous Version | Text Only | Print | Product List | Glossary On
Versions: 1 2 3 4 5 6 7 8 9 10 11 12 13 14 15 16 17 18 19 20 21 22 23
692
FTUS46 KEKA 242338
TAFUKI
TAF
KUKI 242338Z 2500/2524 32009KT P6SM VCTS SCT040CB BKN090
     FM250300 32005KT P6SM SCT050 BKN100
     FM250700 VRB03KT P6SM BKN015
     FM251700 32010KT P6SM SCT015=

USA.gov is the U.S. government's official web portal to all federal, state and local government web resources and services.